Time;durP1;ratioP1;P1;durP2;ratioP2;P2;SDS_P1;SDS_P2;PMS_P1;PMS_P2;Temp;Humidity;BMP_temperature;BMP_pressure;BME280_temperature;BME280_humidity;BME280_pressure;Samples;Min_cycle;Max_cycle;Signal;HPM_P1;HPM_P2
2023/10/11 00:00:33;;;;;;;20.30;5.10;;;;;;;14.12;75.48;149640.31;4923397;29;20379;-50
2023/10/11 00:03:05;;;;;;;13.53;4.00;;;;;;;14.00;76.38;149611.56;4918799;29;20291;-50
2023/10/11 00:05:36;;;;;;;13.43;4.10;;;;;;;13.99;77.45;149607.84;4922923;29;20257;-52
2023/10/11 00:08:03;;;;;;;9.93;3.93;;;;;;;13.91;77.25;149589.09;4923682;29;20234;-51
2023/10/11 00:10:30;;;;;;;13.17;4.07;;;;;;;13.83;78.02;149570.41;4916577;29;20233;-51
2023/10/11 00:12:58;;;;;;;9.83;3.50;;;;;;;13.79;78.38;149559.16;4916949;29;20252;-50
2023/10/11 00:15:26;;;;;;;13.13;4.17;;;;;;;13.90;79.95;149586.59;4921724;29;20237;-51
2023/10/11 00:17:53;;;;;;;10.57;3.90;;;;;;;13.87;78.29;149579.13;4923468;29;20241;-51
2023/10/11 00:20:28;;;;;;;13.33;4.10;;;;;;;13.81;77.91;149564.13;4924487;29;20234;-51
2023/10/11 00:22:55;;;;;;;15.87;4.40;;;;;;;13.83;76.91;149570.41;4921691;29;20248;-50
2023/10/11 00:25:24;;;;;;;13.23;4.40;;;;;;;13.79;77.26;149559.16;4922412;29;20232;-52
2023/10/11 00:27:51;;;;;;;15.07;4.23;;;;;;;13.75;77.12;149549.22;4919154;29;20260;-50
2023/10/11 00:30:21;;;;;;;11.97;4.03;;;;;;;13.73;78.54;149546.72;4923254;29;20248;-50
2023/10/11 00:32:47;;;;;;;11.63;4.07;;;;;;;13.68;78.00;149534.22;4919298;29;20335;-52
2023/10/11 00:35:19;;;;;;;14.47;4.17;;;;;;;13.67;79.01;149530.47;4919553;29;20710;-50
2023/10/11 00:37:47;;;;;;;15.03;4.53;;;;;;;13.65;78.49;149525.47;4919745;29;20381;-51
2023/10/11 00:40:15;;;;;;;17.33;4.43;;;;;;;13.60;78.42;149514.25;4924378;29;20242;-51
2023/10/11 00:42:42;;;;;;;13.93;4.37;;;;;;;13.59;79.13;149511.75;4920743;29;20243;-52
2023/10/11 00:45:16;;;;;;;16.10;4.73;;;;;;;13.53;78.67;149498.00;4927045;29;20240;-50
2023/10/11 00:47:45;;;;;;;14.20;4.40;;;;;;;13.61;79.65;149515.50;4917773;29;20248;-51
2023/10/11 00:50:14;;;;;;;14.27;4.57;;;;;;;13.48;79.56;149485.53;4926186;29;20242;-50
2023/10/11 00:52:43;;;;;;;18.27;4.53;;;;;;;13.45;79.72;149476.81;4916234;29;20229;-51
2023/10/11 00:55:17;;;;;;;14.87;4.10;;;;;;;13.48;81.32;149485.53;4920867;29;20238;-50
2023/10/11 00:57:43;;;;;;;13.77;4.20;;;;;;;13.37;81.53;149459.31;4916950;29;20684;-50
2023/10/11 01:00:13;;;;;;;14.97;4.77;;;;;;;13.31;82.25;149443.06;4919332;29;20236;-51
2023/10/11 01:02:42;;;;;;;12.03;3.83;;;;;;;13.25;81.45;149430.59;4933378;28;20223;-51
2023/10/11 01:05:10;;;;;;;15.87;4.30;;;;;;;13.31;81.40;149443.06;4920448;29;20800;-52
2023/10/11 01:07:42;;;;;;;9.27;3.80;;;;;;;13.22;81.84;149421.88;4916947;29;20236;-51
2023/10/11 01:10:10;;;;;;;19.90;4.27;;;;;;;13.21;84.00;149420.66;4926867;29;20432;-51
2023/10/11 01:12:42;;;;;;;16.23;4.07;;;;;;;13.18;84.08;149413.16;4923398;29;20293;-51
2023/10/11 01:15:11;;;;;;;15.73;4.03;;;;;;;13.22;85.30;149423.16;4921621;29;20233;-51
2023/10/11 01:17:42;;;;;;;16.50;4.33;;;;;;;13.14;84.51;149403.19;4919265;29;20228;-50
2023/10/11 01:20:14;;;;;;;14.90;4.60;;;;;;;13.24;85.55;149428.13;4921504;29;20248;-50
2023/10/11 01:22:44;;;;;;;14.17;4.33;;;;;;;13.20;86.11;149416.88;4919749;29;20712;-50
2023/10/11 01:25:12;;;;;;;13.57;4.17;;;;;;;13.12;87.08;149398.19;4919777;29;20239;-50
2023/10/11 01:27:44;;;;;;;12.47;4.10;;;;;;;13.16;85.54;149406.91;4924128;29;20240;-50
2023/10/11 01:30:12;;;;;;;14.20;4.20;;;;;;;13.23;85.96;149425.63;4923011;29;20688;-50
2023/10/11 01:32:42;;;;;;;14.40;4.13;;;;;;;13.13;86.85;149401.91;4930407;28;20266;-51
2023/10/11 01:35:12;;;;;;;15.37;4.73;;;;;;;13.17;85.84;149410.66;4926065;29;20230;-50
2023/10/11 01:37:43;;;;;;;14.83;4.20;;;;;;;13.14;86.09;149403.19;4919965;29;20239;-51
2023/10/11 01:40:12;;;;;;;14.50;4.20;;;;;;;13.13;86.74;149400.69;4922317;29;20254;-53
2023/10/11 01:42:42;;;;;;;16.33;4.57;;;;;;;13.13;85.42;149401.91;4918141;29;20244;-50
2023/10/11 01:45:09;;;;;;;14.03;4.50;;;;;;;13.14;85.72;149404.41;4926016;29;20258;-51
2023/10/11 01:47:39;;;;;;;11.30;4.00;;;;;;;13.09;86.51;149391.94;4921941;29;20236;-50
2023/10/11 01:50:08;;;;;;;17.37;4.37;;;;;;;13.04;86.37;149378.22;4920620;29;20338;-52
2023/10/11 01:52:35;;;;;;;20.77;6.50;;;;;;;13.10;87.66;149394.44;4922361;29;20237;-50
2023/10/11 01:55:03;;;;;;;12.23;4.23;;;;;;;13.16;90.44;149408.16;4919461;29;20235;-51
2023/10/11 01:57:30;;;;;;;12.10;4.20;;;;;;;13.10;89.78;149393.19;4920251;29;20366;-50
2023/10/11 01:59:58;;;;;;;15.93;4.50;;;;;;;13.18;90.07;149411.88;4916900;29;20742;-50
2023/10/11 02:02:27;;;;;;;13.10;4.47;;;;;;;13.14;89.21;149404.41;4925300;29;20607;-52
2023/10/11 02:04:57;;;;;;;17.93;4.80;;;;;;;13.14;89.74;149404.41;4915407;29;20300;-50
2023/10/11 02:07:24;;;;;;;14.37;4.40;;;;;;;13.12;90.00;149399.41;4911779;29;20300;-51
2023/10/11 02:09:50;;;;;;;15.87;4.97;;;;;;;13.19;89.18;149414.38;4905584;29;20235;-52
2023/10/11 02:12:18;;;;;;;11.37;4.60;;;;;;;13.12;89.29;149399.41;4918738;29;20244;-50
2023/10/11 02:14:45;;;;;;;15.37;4.70;;;;;;;13.23;90.14;149424.38;4918664;29;20256;-50
2023/10/11 02:17:13;;;;;;;13.53;4.10;;;;;;;13.20;89.90;149416.88;4924716;29;20236;-51
2023/10/11 02:19:39;;;;;;;11.97;4.40;;;;;;;13.20;91.43;149416.88;4918567;29;20323;-51
2023/10/11 02:22:10;;;;;;;11.93;4.10;;;;;;;13.16;91.00;149406.91;4924551;29;20242;-53
2023/10/11 02:24:37;;;;;;;15.97;4.20;;;;;;;13.17;91.49;149409.41;4917780;29;20724;-50
2023/10/11 02:27:06;;;;;;;10.83;4.20;;;;;;;13.13;91.85;149400.69;4925175;29;20231;-51
2023/10/11 02:29:35;;;;;;;13.47;4.33;;;;;;;13.14;91.78;149404.41;4920272;29;20228;-51
2023/10/11 02:32:04;;;;;;;12.33;4.43;;;;;;;13.13;91.55;149401.91;4917054;29;20693;-51
2023/10/11 02:34:31;;;;;;;17.77;4.43;;;;;;;13.22;90.65;149423.16;4918042;29;20242;-50
2023/10/11 02:37:03;;;;;;;14.70;4.33;;;;;;;13.24;92.37;149428.13;4915197;29;20229;-52
2023/10/11 02:39:32;;;;;;;9.17;4.60;;;;;;;13.15;91.56;149405.69;4920765;29;20224;-50
2023/10/11 02:41:59;;;;;;;13.33;4.93;;;;;;;13.28;89.79;149438.06;4917469;29;20239;-52
2023/10/11 02:44:26;;;;;;;14.40;4.37;;;;;;;13.16;90.81;149408.16;4917392;29;20688;-51
2023/10/11 02:46:58;;;;;;;13.60;4.53;;;;;;;13.22;91.78;149423.16;4932663;29;20330;-50
2023/10/11 02:49:31;;;;;;;16.47;5.17;;;;;;;13.20;90.93;149418.16;4925635;29;20671;-50
2023/10/11 02:52:05;;;;;;;16.10;5.23;;;;;;;13.23;91.94;149425.63;4918811;29;20240;-50
2023/10/11 02:54:38;;;;;;;11.60;4.60;;;;;;;13.10;92.15;149393.19;4923571;29;20720;-51
2023/10/11 02:57:06;;;;;;;17.20;4.73;;;;;;;13.16;91.49;149406.91;4920509;29;20294;-50
2023/10/11 02:59:34;;;;;;;11.50;4.13;;;;;;;13.08;91.76;149388.22;4918808;29;20314;-50
2023/10/11 03:02:04;;;;;;;11.70;4.83;;;;;;;13.02;91.55;149374.47;4910231;29;20329;-51
2023/10/11 03:04:35;;;;;;;16.90;4.80;;;;;;;13.06;91.95;149383.22;4921054;29;20735;-52
2023/10/11 03:07:01;;;;;;;14.50;5.10;;;;;;;13.01;93.00;149371.97;4913807;29;20235;-50
2023/10/11 03:09:33;;;;;;;13.83;4.23;;;;;;;12.99;92.25;149366.97;4914575;29;20240;-51
2023/10/11 03:12:05;;;;;;;15.73;4.23;;;;;;;12.94;92.89;149355.78;4915909;29;20243;-52
2023/10/11 03:14:40;;;;;;;15.87;4.70;;;;;;;12.83;93.13;149328.34;4923931;29;20238;-50
2023/10/11 03:17:13;;;;;;;13.27;4.30;;;;;;;12.82;94.25;149327.06;4915895;29;20295;-53
2023/10/11 03:19:43;;;;;;;11.33;3.67;;;;;;;12.91;93.77;149347.03;4916623;29;20309;-54
2023/10/11 03:22:09;;;;;;;17.67;4.37;;;;;;;12.88;95.26;149339.53;4921230;29;20239;-54
2023/10/11 03:24:40;;;;;;;18.10;5.07;;;;;;;12.88;93.88;149339.53;4916670;29;20240;-54
2023/10/11 03:27:09;;;;;;;14.53;5.43;;;;;;;12.81;94.18;149323.34;4916599;29;20241;-54
2023/10/11 03:29:37;;;;;;;17.87;5.03;;;;;;;12.73;94.66;149303.38;4916501;29;20223;-53
2023/10/11 03:32:04;;;;;;;12.30;4.37;;;;;;;12.68;95.03;149292.19;5108071;23;20264;-51
2023/10/11 03:34:33;;;;;;;10.90;4.73;;;;;;;12.66;95.40;149287.19;4920931;29;20424;-52
2023/10/11 03:37:00;;;;;;;17.23;5.07;;;;;;;12.67;95.85;149289.69;4917162;29;20255;-51
2023/10/11 03:39:39;;;;;;;12.27;4.70;;;;;;;12.66;96.03;149287.19;4916331;29;20329;-51
2023/10/11 03:42:14;;;;;;;20.90;4.87;;;;;;;12.66;94.72;149288.41;4900461;29;20700;-51
2023/10/11 03:44:45;;;;;;;16.87;4.10;;;;;;;12.64;94.43;149282.22;4904757;29;20236;-51
2023/10/11 03:47:14;;;;;;;14.33;4.47;;;;;;;12.62;94.20;149277.22;4908391;29;20318;-53
2023/10/11 03:49:50;;;;;;;15.07;5.53;;;;;;;12.64;96.00;149282.22;4904263;29;20224;-51
2023/10/11 03:52:22;;;;;;;12.00;5.30;;;;;;;12.56;96.24;149263.47;4893669;29;20618;-51
2023/10/11 03:54:53;;;;;;;10.50;4.20;;;;;;;12.54;96.60;149259.75;4905228;29;20708;-51
2023/10/11 03:57:19;;;;;;;10.40;4.67;;;;;;;12.62;96.00;149278.44;4907754;29;20262;-52
2023/10/11 03:59:51;;;;;;;13.07;5.00;;;;;;;12.53;96.62;149257.25;4905139;29;20221;-51
2023/10/11 04:02:19;;;;;;;14.87;4.40;;;;;;;12.52;96.54;149253.50;4907041;29;20224;-52
2023/10/11 04:04:49;;;;;;;14.70;4.80;;;;;;;12.47;96.11;149242.28;4905064;29;20236;-51
2023/10/11 04:07:17;;;;;;;14.17;4.33;;;;;;;12.49;96.16;149247.28;4908305;29;20258;-52
2023/10/11 04:09:46;;;;;;;15.63;4.97;;;;;;;12.44;96.77;149233.53;4905357;29;20239;-51
2023/10/11 04:12:13;;;;;;;12.73;4.40;;;;;;;12.44;96.21;149233.53;4910162;29;20239;-51
2023/10/11 04:14:44;;;;;;;14.33;4.50;;;;;;;12.47;96.46;149241.03;4908170;29;20727;-54
2023/10/11 04:17:25;;;;;;;15.80;5.07;;;;;;;12.39;96.96;149222.34;4911156;29;20317;-54
2023/10/11 04:19:59;;;;;;;18.17;4.50;;;;;;;12.34;97.32;149211.09;4907953;29;20286;-54
2023/10/11 04:22:31;;;;;;;16.27;4.90;;;;;;;12.32;97.36;149204.88;4910824;29;20243;-54
2023/10/11 04:25:06;;;;;;;13.57;5.10;;;;;;;12.23;98.21;149184.94;4908477;29;20299;-54
2023/10/11 04:30:23;;;;;;;12.83;5.47;;;;;;;12.26;98.01;149191.16;4907821;29;20684;-51
2023/10/11 04:32:56;;;;;;;10.77;4.80;;;;;;;12.24;98.45;149186.16;4907277;29;20239;-51
2023/10/11 04:35:25;;;;;;;18.87;5.50;;;;;;;12.17;99.83;149168.75;4910551;29;20244;-52
2023/10/11 04:37:55;;;;;;;13.07;5.03;;;;;;;12.12;100.00;149156.28;4907966;29;20284;-52
2023/10/11 04:40:38;;;;;;;13.37;5.10;;;;;;;12.06;100.00;149142.53;4910964;29;20902;-51
2023/10/11 04:43:08;;;;;;;12.27;5.13;;;;;;;11.92;100.00;149108.84;4908377;29;20696;-51
2023/10/11 04:45:44;;;;;;;15.87;5.70;;;;;;;11.83;100.00;149087.63;4907587;29;20232;-52
2023/10/11 04:48:14;;;;;;;14.57;5.30;;;;;;;11.71;100.00;149057.72;4909853;29;20310;-51
2023/10/11 04:51:04;;;;;;;19.10;5.33;;;;;;;11.62;100.00;149037.81;4921458;29;20237;-51
2023/10/11 04:53:35;;;;;;;17.30;4.83;;;;;;;11.55;100.00;149020.38;4910470;29;20261;-51
2023/10/11 04:56:34;;;;;;;14.30;5.23;;;;;;;11.48;100.00;149004.16;4908135;29;20224;-51
2023/10/11 04:58:51;;;;;;;13.40;4.90;;;;;;;11.43;100.00;148990.47;4907183;29;20239;-51
2023/10/11 05:01:22;;;;;;;12.60;5.40;;;;;;;11.36;100.00;148974.25;4910659;29;20744;-51
2023/10/11 05:03:58;;;;;;;14.20;4.97;;;;;;;11.40;100.00;148984.22;4907681;29;20247;-51
2023/10/11 05:06:31;;;;;;;14.63;5.73;;;;;;;11.33;100.00;148968.03;4910509;29;20688;-51
2023/10/11 05:09:12;;;;;;;15.00;5.17;;;;;;;11.30;100.00;148960.56;4907254;29;20721;-54
2023/10/11 05:11:43;;;;;;;18.37;5.10;;;;;;;11.37;100.00;148978.00;4907630;29;20243;-54
2023/10/11 05:14:26;;;;;;;13.67;5.10;;;;;;;11.46;100.00;148997.94;4910167;29;20707;-54
2023/10/11 05:16:58;;;;;;;21.30;5.03;;;;;;;11.40;100.00;148984.22;4907248;29;20780;-54
2023/10/11 05:19:26;;;;;;;12.17;5.13;;;;;;;11.39;100.00;148980.50;4910686;29;20275;-54
2023/10/11 05:21:55;;;;;;;14.23;5.30;;;;;;;11.43;100.00;148990.47;4907165;29;20701;-54
2023/10/11 05:24:44;;;;;;;18.70;4.97;;;;;;;11.36;100.00;148975.50;4910092;29;20229;-51
2023/10/11 05:27:36;;;;;;;18.17;5.60;;;;;;;11.35;100.00;148971.75;4907623;29;20709;-53
2023/10/11 05:30:11;;;;;;;12.40;5.13;;;;;;;11.36;100.00;148974.25;4907587;29;20234;-52
2023/10/11 05:32:49;;;;;;;15.83;4.93;;;;;;;11.39;100.00;148980.50;4907540;29;20236;-52
2023/10/11 05:35:53;;;;;;;13.73;5.03;;;;;;;11.34;100.00;148969.25;4909445;29;20247;-51
2023/10/11 05:52:07;;;;;;;11.50;5.43;;;;;;;11.40;100.00;148982.97;4907258;29;20580;-51
2023/10/11 05:54:35;;;;;;;18.80;5.30;;;;;;;11.49;100.00;149005.41;4904926;29;20316;-52
2023/10/11 05:57:03;;;;;;;13.70;5.50;;;;;;;11.45;100.00;148995.44;4909668;29;20240;-52
2023/10/11 05:59:32;;;;;;;12.17;4.70;;;;;;;11.48;100.00;149004.16;4909421;29;20299;-52
2023/10/11 06:01:59;;;;;;;13.50;4.40;;;;;;;11.67;100.00;149050.25;4906502;29;20242;-52
2023/10/11 06:04:25;;;;;;;21.27;4.77;;;;;;;11.71;100.00;149059.00;4909377;29;20240;-52
2023/10/11 06:06:57;;;;;;;15.63;4.43;;;;;;;11.73;100.00;149063.97;4906771;29;20237;-52
2023/10/11 06:09:26;;;;;;;19.93;4.40;;;;;;;11.99;100.00;149125.03;4909597;29;20701;-52
2023/10/11 06:11:54;;;;;;;14.90;4.57;;;;;;;12.04;100.00;149138.81;4906076;29;20320;-54
2023/10/11 06:14:24;;;;;;;24.00;4.97;;;;;;;12.27;99.01;149192.41;4908858;29;20235;-54
2023/10/11 06:16:57;;;;;;;21.37;5.53;;;;;;;12.34;99.60;149211.09;4906516;29;20216;-54
2023/10/11 06:19:26;;;;;;;14.63;4.53;;;;;;;12.39;98.61;149223.56;4904703;29;20298;-54
2023/10/11 06:22:00;;;;;;;11.33;4.23;;;;;;;12.54;96.12;149258.47;4897986;29;20256;-54
2023/10/11 06:24:33;;;;;;;18.53;4.43;;;;;;;12.68;94.23;149293.41;4919830;29;20239;-50
2023/10/11 06:28:09;;;;;;;15.87;4.63;;;;;;;12.75;94.17;149309.59;4907087;29;20233;-50
2023/10/11 06:29:58;;;;;;;13.17;4.63;;;;;;;12.83;93.65;149328.34;4905928;29;20222;-50
2023/10/11 06:32:25;;;;;;;18.07;4.97;;;;;;;12.88;92.46;149340.81;4906995;29;20762;-50
2023/10/11 06:34:53;;;;;;;19.83;4.70;;;;;;;12.92;92.12;149350.78;4905676;29;20233;-53
2023/10/11 06:37:24;;;;;;;15.87;4.00;;;;;;;12.92;92.16;149350.78;4908995;29;20236;-50
2023/10/11 06:42:43;;;;;;;16.53;5.23;;;;;;;12.92;93.90;149350.78;4900851;29;20240;-52
2023/10/11 06:45:17;;;;;;;17.20;4.03;;;;;;;12.94;94.29;149354.50;4907873;29;20248;-51
2023/10/11 06:47:49;;;;;;;14.23;4.47;;;;;;;12.90;94.55;149345.78;4906043;29;20322;-51
2023/10/11 06:50:17;;;;;;;17.40;4.50;;;;;;;12.89;95.65;149342.03;4908572;29;20317;-51
2023/10/11 06:52:45;;;;;;;11.63;4.70;;;;;;;12.85;96.50;149333.31;4905715;29;20246;-51
2023/10/11 06:55:17;;;;;;;12.70;4.40;;;;;;;12.85;97.60;149334.53;4905994;29;20731;-52
2023/10/11 06:57:50;;;;;;;15.27;4.53;;;;;;;12.86;97.14;149335.81;4906094;29;20236;-51
2023/10/11 07:00:24;;;;;;;18.30;4.70;;;;;;;12.89;97.24;149342.03;4908957;29;20289;-52
2023/10/11 07:03:06;;;;;;;14.67;5.07;;;;;;;12.90;97.32;149345.78;4905960;29;20240;-53
2023/10/11 07:05:35;;;;;;;12.07;4.60;;;;;;;12.90;97.37;149344.53;4908274;29;20719;-50
2023/10/11 07:08:05;;;;;;;14.33;4.80;;;;;;;12.93;97.92;149353.28;4906424;29;20240;-51
2023/10/11 07:10:32;;;;;;;15.67;5.30;;;;;;;12.93;98.31;149353.28;4908898;29;20239;-52
2023/10/11 07:13:05;;;;;;;13.00;4.93;;;;;;;12.93;98.90;149353.28;4906166;29;20712;-51
2023/10/11 07:15:43;;;;;;;15.63;5.87;;;;;;;12.94;99.31;149354.50;4908522;29;20569;-52
2023/10/11 07:18:12;;;;;;;10.83;4.97;;;;;;;12.96;98.98;149360.75;4905989;29;20331;-50
2023/10/11 07:20:58;;;;;;;16.63;5.57;;;;;;;13.01;98.67;149371.97;4905968;29;20312;-50
2023/10/11 07:23:34;;;;;;;13.60;4.73;;;;;;;13.04;98.61;149379.44;4908421;29;20238;-50
2023/10/11 07:26:23;;;;;;;14.13;4.67;;;;;;;13.12;97.78;149398.19;4906241;29;20699;-51
2023/10/11 07:28:51;;;;;;;13.33;4.60;;;;;;;13.12;98.43;149399.41;4905598;29;20312;-50
2023/10/11 07:31:18;;;;;;;14.23;4.70;;;;;;;13.14;97.99;149404.41;4908337;29;20696;-51
2023/10/11 07:33:50;;;;;;;16.53;5.10;;;;;;;13.17;98.15;149409.41;4905693;29;20240;-51
2023/10/11 07:36:18;;;;;;;14.87;5.30;;;;;;;13.24;97.46;149426.88;4907419;29;20323;-52
2023/10/11 07:38:54;;;;;;;18.40;5.87;;;;;;;13.29;96.97;149439.34;4905355;29;20285;-50
2023/10/11 07:41:23;;;;;;;15.00;5.43;;;;;;;13.34;96.45;149450.53;4908482;29;20704;-50
2023/10/11 07:43:51;;;;;;;21.53;5.70;;;;;;;13.37;96.44;149459.31;4905745;29;20235;-51
2023/10/11 07:46:19;;;;;;;13.70;4.97;;;;;;;13.43;96.42;149473.06;4909971;29;20251;-50
2023/10/11 07:48:46;;;;;;;17.70;5.40;;;;;;;13.48;97.10;149485.53;4909396;29;20247;-52
2023/10/11 07:51:13;;;;;;;12.33;5.53;;;;;;;13.54;96.99;149500.50;4912097;29;20238;-50
2023/10/11 07:53:41;;;;;;;14.70;5.73;;;;;;;13.62;97.60;149517.97;4909450;29;20239;-51
2023/10/11 07:56:08;;;;;;;13.07;4.47;;;;;;;13.75;96.57;149550.44;4911316;29;20251;-51
2023/10/11 07:58:35;;;;;;;21.20;5.80;;;;;;;13.89;95.00;149584.09;4908984;29;20236;-52
2023/10/11 08:01:15;;;;;;;16.17;5.00;;;;;;;14.00;94.47;149610.34;4911784;29;20729;-51
2023/10/11 08:03:44;;;;;;;13.10;5.57;;;;;;;14.16;92.72;149650.28;4908801;29;20260;-52
2023/10/11 08:06:12;;;;;;;19.47;5.40;;;;;;;14.36;92.91;149696.47;4911679;29;20234;-50
2023/10/11 08:08:39;;;;;;;15.80;4.87;;;;;;;14.55;92.01;149742.63;4907791;29;20241;-50
2023/10/11 08:11:18;;;;;;;20.87;5.87;;;;;;;14.70;90.06;149780.16;4911721;29;20242;-50
2023/10/11 08:13:46;;;;;;;13.97;6.17;;;;;;;14.90;89.13;149828.84;4909229;29;20241;-50
2023/10/11 08:16:17;;;;;;;12.70;5.77;;;;;;;15.05;89.06;149865.09;4911591;29;20234;-50
2023/10/11 08:18:49;;;;;;;16.47;6.60;;;;;;;15.19;88.51;149898.78;4907174;29;20245;-52
2023/10/11 08:21:16;;;;;;;20.47;6.53;;;;;;;15.32;89.83;149928.78;4911428;29;20238;-50
2023/10/11 08:23:44;;;;;;;13.67;5.80;;;;;;;15.42;88.43;149952.50;4907928;29;20734;-50
2023/10/11 08:26:15;;;;;;;20.17;6.30;;;;;;;15.50;85.98;149973.75;4910145;29;20316;-52
2023/10/11 08:28:48;;;;;;;12.30;5.27;;;;;;;15.61;84.97;149998.75;4908817;29;20594;-50
2023/10/11 08:31:35;;;;;;;15.43;5.53;;;;;;;15.70;85.32;150021.22;4910565;29;20239;-51
2023/10/11 08:34:01;;;;;;;13.20;5.30;;;;;;;15.81;86.43;150047.44;4907796;29;20599;-50
2023/10/11 08:36:29;;;;;;;16.00;6.57;;;;;;;15.97;85.86;150086.22;4911237;29;20334;-51
2023/10/11 08:38:56;;;;;;;19.27;6.20;;;;;;;16.02;86.20;150098.72;4922138;29;20234;-53
2023/10/11 08:41:23;;;;;;;20.17;5.57;;;;;;;16.17;87.20;150135.00;4911231;29;20242;-53
2023/10/11 08:43:53;;;;;;;13.47;5.27;;;;;;;16.26;86.36;150156.22;4908246;29;20303;-51
2023/10/11 08:46:27;;;;;;;17.30;6.23;;;;;;;16.39;84.96;150187.50;4911019;29;20234;-53
2023/10/11 08:48:54;;;;;;;17.90;5.37;;;;;;;16.54;85.86;150223.72;4908134;29;20242;-51
2023/10/11 08:51:24;;;;;;;14.73;5.80;;;;;;;16.61;85.68;150241.22;4910430;29;20239;-50
2023/10/11 08:53:54;;;;;;;20.97;6.20;;;;;;;16.78;82.90;150281.25;4908057;29;20235;-51
2023/10/11 08:56:23;;;;;;;14.23;6.03;;;;;;;16.93;82.21;150318.75;4909254;29;20319;-53
2023/10/11 08:58:53;;;;;;;14.47;5.77;;;;;;;17.07;81.33;150352.53;4907957;29;20538;-52
2023/10/11 09:01:20;;;;;;;16.13;5.27;;;;;;;17.21;82.05;150386.28;4911350;29;20247;-51
2023/10/11 09:04:05;;;;;;;14.37;5.10;;;;;;;17.42;79.84;150436.31;4907994;29;20232;-53
2023/10/11 09:06:34;;;;;;;14.07;5.07;;;;;;;17.55;79.36;150468.84;4910660;29;20568;-51
2023/10/11 09:09:03;;;;;;;12.30;5.60;;;;;;;17.71;79.44;150506.38;4908269;29;20322;-51
2023/10/11 09:11:30;;;;;;;11.80;5.40;;;;;;;17.83;78.30;150536.41;4910575;29;20247;-52
2023/10/11 09:14:11;;;;;;;17.07;5.50;;;;;;;17.93;78.19;150560.16;4907857;29;20238;-51
2023/10/11 09:16:38;;;;;;;19.13;5.70;;;;;;;18.08;77.28;150596.47;4907701;29;20244;-51
2023/10/11 09:19:12;;;;;;;20.07;6.50;;;;;;;18.18;78.76;150620.25;4909896;29;20573;-51
2023/10/11 09:21:39;;;;;;;12.67;5.27;;;;;;;18.30;77.92;150649.03;4894592;29;20240;-51
2023/10/11 09:24:24;;;;;;;13.67;5.90;;;;;;;18.31;78.98;150650.31;4910559;29;20232;-52
2023/10/11 09:27:12;;;;;;;14.83;5.93;;;;;;;18.38;77.51;150669.06;4907355;29;20263;-51
2023/10/11 09:29:42;;;;;;;14.13;5.60;;;;;;;18.50;77.33;150696.59;4907263;29;20236;-51
2023/10/11 09:32:09;;;;;;;13.87;5.57;;;;;;;18.63;76.91;150727.84;4910204;29;20244;-52
2023/10/11 09:34:41;;;;;;;12.13;5.60;;;;;;;18.84;76.33;150779.22;4906769;29;20240;-51
2023/10/11 09:37:11;;;;;;;16.87;5.77;;;;;;;19.10;72.05;150841.81;4910174;29;20242;-52
2023/10/11 09:39:37;;;;;;;14.67;5.50;;;;;;;19.20;74.99;150866.84;4906454;29;20251;-51
2023/10/11 09:42:05;;;;;;;16.27;6.10;;;;;;;19.28;76.58;150886.88;4909937;29;20248;-52
2023/10/11 09:44:37;;;;;;;21.07;5.30;;;;;;;19.41;74.11;150918.22;4920210;23;20241;-57
2023/10/11 09:47:05;;;;;;;17.00;5.70;;;;;;;19.55;73.87;150952.00;4921659;29;20335;-56
2023/10/11 09:49:41;;;;;;;13.80;5.00;;;;;;;19.69;70.64;150984.56;4921512;29;20717;-57
2023/10/11 09:52:10;;;;;;;14.90;4.97;;;;;;;19.90;66.54;151035.94;4918480;29;20284;-56
2023/10/11 09:54:39;;;;;;;16.57;5.23;;;;;;;20.10;66.15;151083.56;4917453;29;20234;-55
2023/10/11 09:57:16;;;;;;;13.03;5.57;;;;;;;20.34;64.90;151142.41;4924177;29;20230;-56
2023/10/11 09:59:50;;;;;;;15.73;5.00;;;;;;;20.64;64.07;151215.09;4915044;29;20241;-56
2023/10/11 10:02:24;;;;;;;11.67;4.53;;;;;;;20.83;61.13;151260.25;4920755;29;20244;-56
2023/10/11 10:05:04;;;;;;;15.43;4.70;;;;;;;21.05;63.94;151315.41;4917029;29;20238;-56
2023/10/11 10:07:42;;;;;;;12.07;4.47;;;;;;;21.20;64.20;151351.75;4921732;29;20295;-56
2023/10/11 10:10:11;;;;;;;18.00;5.70;;;;;;;21.36;62.83;151390.59;4916082;29;20244;-57
2023/10/11 10:12:44;;;;;;;15.63;5.07;;;;;;;21.34;62.66;151384.34;4917194;29;20248;-57
2023/10/11 10:15:13;;;;;;;14.13;4.80;;;;;;;21.48;61.57;151418.16;4922048;29;20242;-57
2023/10/11 10:18:19;;;;;;;15.50;5.23;;;;;;;21.60;61.49;151448.25;4917034;29;20236;-56
2023/10/11 10:20:48;;;;;;;15.93;5.73;;;;;;;21.77;60.47;151488.44;4911902;29;20314;-57
2023/10/11 10:23:37;;;;;;;15.80;5.57;;;;;;;21.86;61.94;151509.72;4919795;29;20243;-57
2023/10/11 10:26:38;;;;;;;16.83;5.10;;;;;;;21.87;60.88;151512.22;4917576;29;20243;-57
2023/10/11 10:29:07;;;;;;;16.03;5.77;;;;;;;21.97;58.29;151537.31;4916717;29;20234;-56
2023/10/11 10:31:34;;;;;;;12.50;5.33;;;;;;;22.01;59.07;151547.34;4918603;29;20241;-56
2023/10/11 10:34:29;;;;;;;16.93;5.60;;;;;;;22.19;58.97;151591.28;4918949;29;20254;-55
2023/10/11 10:37:02;;;;;;;24.53;5.30;;;;;;;22.17;56.62;151586.25;4884681;29;20246;-57
2023/10/11 10:39:47;;;;;;;17.17;5.30;;;;;;;22.30;54.54;151616.31;4918422;29;20241;-56
2023/10/11 10:42:16;;;;;;;18.60;4.50;;;;;;;22.48;51.47;151661.50;4917470;29;20246;-54
2023/10/11 10:44:51;;;;;;;16.17;4.80;;;;;;;22.49;52.66;151662.78;4916679;29;20241;-54
2023/10/11 10:47:32;;;;;;;17.13;4.30;;;;;;;22.65;50.41;151702.94;4925952;29;20228;-53
2023/10/11 10:50:05;;;;;;;12.60;4.17;;;;;;;22.64;50.67;151699.16;4915726;29;20241;-56
2023/10/11 10:52:34;;;;;;;13.07;3.97;;;;;;;22.76;49.46;151729.25;4921217;29;20248;-57
2023/10/11 10:55:01;;;;;;;12.90;4.03;;;;;;;22.80;49.95;151739.28;4918062;29;20251;-56
2023/10/11 10:57:31;;;;;;;11.47;3.67;;;;;;;22.89;49.05;151760.59;4921833;29;20710;-56
2023/10/11 10:59:58;;;;;;;13.87;4.67;;;;;;;22.91;48.50;151764.38;4916127;29;20234;-55
2023/10/11 11:02:25;;;;;;;18.47;5.37;;;;;;;22.79;49.02;151736.78;4921369;29;20245;-56
2023/10/11 11:04:50;;;;;;;16.03;4.43;;;;;;;22.97;48.51;151780.69;4916344;29;20253;-56
2023/10/11 11:07:24;;;;;;;10.07;3.90;;;;;;;23.03;48.58;151794.50;4920521;29;20705;-56
2023/10/11 11:09:54;;;;;;;15.63;4.67;;;;;;;23.18;48.02;151830.88;4916179;29;20240;-56
2023/10/11 11:12:28;;;;;;;18.77;4.50;;;;;;;23.18;48.32;151830.88;4918319;29;20259;-56
2023/10/11 11:14:55;;;;;;;10.17;4.13;;;;;;;23.32;48.77;151863.53;4918371;29;20241;-57
2023/10/11 11:17:24;;;;;;;16.67;4.00;;;;;;;23.36;48.62;151873.59;4922195;29;20242;-57
2023/10/11 11:20:12;;;;;;;17.97;4.50;;;;;;;23.40;48.75;151884.84;4918801;29;20743;-57
2023/10/11 11:22:45;;;;;;;12.27;4.60;;;;;;;23.43;48.43;151892.38;4916234;29;20237;-55
2023/10/11 11:25:26;;;;;;;11.13;4.53;;;;;;;23.51;48.07;151911.25;4918886;29;20237;-57
2023/10/11 11:28:14;;;;;;;12.83;3.87;;;;;;;23.52;48.47;151913.75;4917414;29;20595;-54
2023/10/11 11:30:43;;;;;;;11.97;4.07;;;;;;;23.48;47.46;151902.44;4917383;29;20583;-55
2023/10/11 11:33:21;;;;;;;10.17;3.63;;;;;;;23.58;48.18;151927.53;4920130;29;20267;-55
2023/10/11 11:35:52;;;;;;;13.90;3.67;;;;;;;23.70;46.72;151956.44;4917918;29;20240;-56
2023/10/11 11:38:21;;;;;;;12.17;4.20;;;;;;;23.64;46.57;151942.59;4917087;29;20618;-56
2023/10/11 11:40:51;;;;;;;14.97;3.77;;;;;;;23.83;45.11;151989.06;4920301;29;20226;-56
2023/10/11 11:43:17;;;;;;;16.47;4.33;;;;;;;23.91;45.79;152007.88;4917879;29;20234;-54
2023/10/11 11:45:45;;;;;;;19.67;4.10;;;;;;;23.79;45.26;151977.75;4914495;29;20245;-56
2023/10/11 11:48:11;;;;;;;16.87;3.97;;;;;;;23.70;46.29;151957.66;4920777;29;20320;-57
2023/10/11 11:50:39;;;;;;;10.80;4.47;;;;;;;23.72;46.70;151962.69;4915480;29;20238;-57
2023/10/11 11:53:05;;;;;;;13.43;4.03;;;;;;;23.82;46.67;151986.56;4917788;29;20237;-56
2023/10/11 11:55:34;;;;;;;14.53;3.93;;;;;;;23.91;45.25;152006.59;4919046;29;20332;-57